Time;durP1;ratioP1;P1;durP2;ratioP2;P2;SDS_P1;SDS_P2;PMS_P1;PMS_P2;Temp;Humidity;BMP_temperature;BMP_pressure;BME280_temperature;BME280_humidity;BME280_pressure;Samples;Min_cycle;Max_cycle;Signal;HPM_P1;HPM_P2
2022/03/21 00:01:04;;;;;;;20.03;13.13;;;;;;;9.43;54.54;99465.13;4167368;28;20663;-82
2022/03/21 00:03:10;;;;;;;16.50;12.67;;;;;;;9.36;54.69;99462.84;4167706;28;23847;-83
2022/03/21 00:05:13;;;;;;;21.13;13.03;;;;;;;9.28;55.32;99466.69;4172815;28;20629;-81
2022/03/21 00:07:18;;;;;;;21.83;13.90;;;;;;;9.19;57.41;99462.69;4184205;28;20635;-82
2022/03/21 00:09:21;;;;;;;20.43;14.20;;;;;;;9.11;57.28;99456.97;4199405;28;20627;-82
2022/03/21 00:11:24;;;;;;;19.97;14.73;;;;;;;9.06;56.83;99456.28;4170151;28;20704;-82
2022/03/21 00:13:27;;;;;;;20.03;14.70;;;;;;;9.01;57.37;99449.59;4167845;28;20646;-82
2022/03/21 00:15:32;;;;;;;18.07;13.40;;;;;;;8.92;57.94;99458.59;4185687;28;20657;-82
2022/03/21 00:17:40;;;;;;;20.97;14.40;;;;;;;8.87;57.81;99464.91;4170332;28;20743;-83
2022/03/21 00:19:45;;;;;;;22.00;14.67;;;;;;;8.77;59.38;99460.13;4185460;28;20714;-82
2022/03/21 00:21:48;;;;;;;21.20;16.10;;;;;;;8.58;59.03;99464.31;4184934;28;20668;-82
2022/03/21 00:23:52;;;;;;;20.33;15.60;;;;;;;8.48;60.78;99470.81;4185591;28;20652;-82
2022/03/21 00:25:55;;;;;;;21.40;15.03;;;;;;;8.41;60.41;99465.91;4172000;28;20645;-82
2022/03/21 00:27:58;;;;;;;21.37;14.77;;;;;;;8.36;61.16;99462.59;4185397;28;20651;-82
2022/03/21 00:30:01;;;;;;;18.93;14.23;;;;;;;8.30;60.87;99463.69;4189112;28;20643;-82
2022/03/21 00:32:05;;;;;;;19.90;15.00;;;;;;;8.26;61.67;99456.91;4185950;28;21113;-83
2022/03/21 00:34:09;;;;;;;21.17;15.50;;;;;;;8.21;60.66;99450.16;4170985;28;21158;-83
2022/03/21 00:36:14;;;;;;;22.07;16.03;;;;;;;8.15;61.40;99451.28;4187537;28;21099;-82
2022/03/21 00:38:37;;;;;;;20.27;13.70;;;;;;;8.10;62.12;99447.09;4170969;28;20710;-82
2022/03/21 00:40:41;;;;;;;21.50;15.33;;;;;;;8.02;61.69;99447.38;4168146;28;21271;-82
2022/03/21 00:42:46;;;;;;;20.03;15.20;;;;;;;7.94;63.41;99451.19;4170715;28;20642;-82
2022/03/21 00:44:49;;;;;;;17.60;14.37;;;;;;;7.84;63.09;99457.59;4183091;28;20667;-82
2022/03/21 00:46:52;;;;;;;22.60;16.43;;;;;;;7.79;63.64;99453.47;4192960;28;21207;-82
2022/03/21 00:48:56;;;;;;;22.63;14.77;;;;;;;7.75;62.80;99455.31;4186005;28;20671;-82
2022/03/21 00:50:59;;;;;;;22.83;15.23;;;;;;;7.70;64.28;99453.81;4200060;28;20685;-81
2022/03/21 00:53:04;;;;;;;19.60;14.90;;;;;;;7.69;63.21;99449.50;4184003;28;20341;-82
2022/03/21 00:55:09;;;;;;;17.98;13.88;;;;;;;7.63;63.59;99453.16;4185031;28;20879;-82
2022/03/21 00:57:12;;;;;;;21.83;15.27;;;;;;;7.59;63.83;99467.16;4173797;28;20726;-82
2022/03/21 00:59:15;;;;;;;20.27;14.68;;;;;;;7.52;63.87;99454.44;4185127;28;20647;-82
2022/03/21 01:01:18;;;;;;;19.03;14.20;;;;;;;7.48;64.76;99451.09;4186460;28;20222;-83
2022/03/21 01:03:22;;;;;;;20.35;14.05;;;;;;;7.44;65.11;99456.44;4171697;28;21410;-82
2022/03/21 01:05:26;;;;;;;21.95;13.80;;;;;;;7.38;64.61;99451.47;4185399;28;20285;-82
2022/03/21 01:07:29;;;;;;;22.90;14.93;;;;;;;7.28;64.43;99454.44;4198241;28;20219;-82
2022/03/21 01:09:33;;;;;;;20.40;14.30;;;;;;;7.24;64.80;99453.66;4169838;28;21228;-82
2022/03/21 01:11:36;;;;;;;20.67;14.85;;;;;;;7.21;65.28;99456.34;4166540;28;20621;-82
2022/03/21 01:13:42;;;;;;;20.67;15.30;;;;;;;7.16;65.12;99460.88;4183001;28;20658;-82
2022/03/21 01:15:46;;;;;;;19.30;14.00;;;;;;;7.15;64.94;99453.97;4170981;28;20257;-82
2022/03/21 01:17:49;;;;;;;21.00;14.68;;;;;;;7.11;65.66;99462.78;4186661;28;20193;-81
2022/03/21 01:19:52;;;;;;;20.50;14.00;;;;;;;7.08;66.15;99465.47;4187895;28;20210;-82
2022/03/21 01:21:55;;;;;;;18.52;14.18;;;;;;;7.03;66.69;99463.06;4182618;28;20681;-82
2022/03/21 01:23:58;;;;;;;18.93;14.20;;;;;;;7.01;66.32;99464.88;4185602;28;20224;-82
2022/03/21 01:26:05;;;;;;;20.02;13.93;;;;;;;6.92;66.75;99466.00;4188646;28;21617;-81
2022/03/21 01:28:09;;;;;;;21.17;14.15;;;;;;;6.83;66.54;99460.28;4182904;28;20200;-82
2022/03/21 01:30:13;;;;;;;18.85;13.55;;;;;;;6.79;66.55;99459.50;4187101;28;20209;-82
2022/03/21 01:32:16;;;;;;;22.58;15.57;;;;;;;6.74;66.64;99455.38;4174027;28;20207;-82
2022/03/21 01:34:19;;;;;;;20.95;14.57;;;;;;;6.73;66.45;99457.09;4164390;28;20200;-82
2022/03/21 01:36:23;;;;;;;19.38;14.00;;;;;;;6.72;66.66;99457.13;4190114;28;20254;-82
2022/03/21 01:38:26;;;;;;;20.65;14.57;;;;;;;6.68;67.23;99468.53;4166574;28;20203;-82
2022/03/21 01:40:29;;;;;;;21.73;13.57;;;;;;;6.68;67.45;99459.00;4185121;28;20213;-82
2022/03/21 01:42:36;;;;;;;21.52;14.43;;;;;;;6.66;67.69;99454.75;4182585;28;20223;-82
2022/03/21 01:44:39;;;;;;;19.45;14.20;;;;;;;6.66;66.90;99459.91;4185886;28;20686;-82
2022/03/21 01:46:43;;;;;;;21.40;15.00;;;;;;;6.63;67.55;99463.47;4175929;28;20210;-82
2022/03/21 01:48:46;;;;;;;21.25;14.95;;;;;;;6.58;67.50;99469.69;4174166;28;20452;-81
2022/03/21 01:50:49;;;;;;;20.55;14.10;;;;;;;6.54;67.96;99462.91;4189083;28;20230;-82
2022/03/21 01:55:43;;;;;;;17.45;13.55;;;;;;;6.52;68.03;99462.09;4186343;28;20209;-82
2022/03/21 01:57:38;;;;;;;20.55;13.60;;;;;;;6.46;67.62;99464.88;4180681;28;20270;-81
2022/03/21 01:59:42;;;;;;;17.52;13.80;;;;;;;6.44;67.57;99466.66;4193595;28;20199;-82
2022/03/21 02:01:45;;;;;;;18.17;12.85;;;;;;;6.43;67.77;99471.91;4171089;28;20250;-83
2022/03/21 02:03:49;;;;;;;18.80;13.75;;;;;;;6.40;68.36;99472.00;4188935;28;20206;-82
2022/03/21 02:05:52;;;;;;;21.67;14.30;;;;;;;6.33;68.10;99471.34;4184628;28;20247;-82
2022/03/21 02:07:55;;;;;;;18.08;13.32;;;;;;;6.34;68.17;99469.56;4171804;28;20206;-82
2022/03/21 02:09:58;;;;;;;19.35;13.32;;;;;;;6.34;68.36;99472.16;4171086;28;20216;-81
2022/03/21 02:12:01;;;;;;;16.65;12.93;;;;;;;6.31;67.79;99470.50;4187609;28;20560;-82
2022/03/21 02:14:07;;;;;;;18.38;12.65;;;;;;;6.29;68.71;99471.47;4168984;28;20228;-82
2022/03/21 02:16:10;;;;;;;20.20;14.32;;;;;;;6.31;68.37;99478.28;4188434;28;20231;-82
2022/03/21 02:18:13;;;;;;;17.40;12.82;;;;;;;6.28;67.98;99480.97;4187471;28;20208;-82
2022/03/21 02:20:18;;;;;;;18.63;12.30;;;;;;;6.29;68.37;99477.47;4189150;28;20209;-81
2022/03/21 02:22:28;;;;;;;21.17;13.20;;;;;;;6.28;67.97;99480.97;4184338;28;20228;-82
2022/03/21 02:24:35;;;;;;;16.50;12.60;;;;;;;6.27;67.76;99486.19;4189709;28;20197;-83
2022/03/21 02:26:40;;;;;;;18.02;12.75;;;;;;;6.24;68.45;99487.13;4173586;28;20205;-82
2022/03/21 02:28:43;;;;;;;17.30;12.73;;;;;;;6.24;67.94;99486.25;4169309;28;20214;-82
2022/03/21 02:30:48;;;;;;;18.67;12.33;;;;;;;6.21;68.13;99484.63;4168903;28;20203;-82
2022/03/21 02:32:52;;;;;;;17.88;13.20;;;;;;;6.17;68.59;99489.94;4191363;28;20769;-82
2022/03/21 02:34:56;;;;;;;16.83;11.95;;;;;;;6.11;67.88;99488.38;4173742;28;20629;-82
2022/03/21 02:36:59;;;;;;;21.02;13.68;;;;;;;6.08;68.26;99497.97;4171352;28;20224;-82
2022/03/21 02:39:02;;;;;;;15.60;11.57;;;;;;;6.05;67.89;99492.03;4187722;28;20673;-82
2022/03/21 02:41:06;;;;;;;17.10;12.50;;;;;;;6.06;68.81;99493.72;4188054;28;20212;-82
2022/03/21 02:43:11;;;;;;;18.80;13.70;;;;;;;6.03;68.51;99486.03;4190406;28;20688;-82
2022/03/21 02:45:14;;;;;;;19.50;12.63;;;;;;;6.01;68.64;99480.91;4192442;28;20296;-82
2022/03/21 02:47:17;;;;;;;19.85;13.85;;;;;;;6.01;68.48;99483.50;4189255;28;20225;-83
2022/03/21 02:49:20;;;;;;;17.55;12.35;;;;;;;6.01;68.52;99485.25;4186867;28;20214;-82
2022/03/21 02:51:24;;;;;;;16.48;12.35;;;;;;;6.01;68.85;99486.09;4173355;28;20209;-82
2022/03/21 02:53:29;;;;;;;19.33;12.73;;;;;;;6.00;68.06;99484.41;4185736;28;20240;-82
2022/03/21 02:55:33;;;;;;;15.52;12.13;;;;;;;5.96;68.37;99485.38;4172058;28;20206;-82
2022/03/21 02:57:36;;;;;;;18.73;12.73;;;;;;;5.96;68.77;99484.53;4167865;28;20297;-82
2022/03/21 02:59:40;;;;;;;18.30;12.82;;;;;;;5.95;69.28;99486.25;4202495;28;20219;-82
2022/03/21 03:01:43;;;;;;;16.23;11.85;;;;;;;5.96;69.43;99489.72;4186401;28;20215;-82
2022/03/21 03:03:47;;;;;;;18.80;12.00;;;;;;;5.95;69.59;99488.00;4173576;28;20216;-81
2022/03/21 03:05:50;;;;;;;18.42;12.80;;;;;;;5.92;68.50;99488.09;4173656;28;20575;-82
2022/03/21 03:07:53;;;;;;;15.88;11.75;;;;;;;5.88;69.03;99489.91;4185696;28;20340;-82
2022/03/21 03:09:56;;;;;;;16.02;12.45;;;;;;;5.89;69.77;99490.75;4186724;28;20202;-82
2022/03/21 03:12:00;;;;;;;18.33;12.00;;;;;;;5.85;69.71;99491.72;4187076;28;20239;-82
2022/03/21 03:14:03;;;;;;;15.90;11.80;;;;;;;5.79;69.04;99490.16;4172455;28;20219;-82
2022/03/21 03:16:07;;;;;;;15.02;11.75;;;;;;;5.77;68.88;99488.50;4168673;28;20226;-82
2022/03/21 03:18:11;;;;;;;16.08;12.05;;;;;;;5.72;69.79;99498.09;4172776;28;20677;-82
2022/03/21 03:20:14;;;;;;;20.30;12.57;;;;;;;5.67;68.89;99495.63;4188048;28;20213;-81
2022/03/21 03:22:18;;;;;;;16.33;11.75;;;;;;;5.66;69.70;99500.84;4175513;28;20759;-82
2022/03/21 03:24:23;;;;;;;16.13;12.13;;;;;;;5.66;68.70;99503.44;4185084;28;20206;-82
2022/03/21 03:26:26;;;;;;;16.70;12.35;;;;;;;5.61;69.35;99507.91;4186326;28;20213;-83
2022/03/21 03:28:31;;;;;;;14.48;12.00;;;;;;;5.58;69.98;99505.38;4174118;28;20218;-82
2022/03/21 03:30:49;;;;;;;15.57;11.48;;;;;;;5.57;69.43;99498.50;4166799;28;20678;-82
2022/03/21 03:32:54;;;;;;;16.30;11.52;;;;;;;5.58;69.71;99497.63;4165734;28;20230;-82
2022/03/21 03:34:57;;;;;;;16.52;11.35;;;;;;;5.59;69.51;99498.47;4184966;28;20217;-82
2022/03/21 03:37:00;;;;;;;14.38;10.55;;;;;;;5.56;68.93;99501.97;4185936;28;20679;-82
2022/03/21 03:39:03;;;;;;;17.75;11.70;;;;;;;5.61;69.16;99505.31;4169787;28;20210;-82
2022/03/21 03:41:08;;;;;;;15.57;12.18;;;;;;;5.59;68.83;99513.97;4173388;28;20257;-83
2022/03/21 03:43:11;;;;;;;15.43;11.70;;;;;;;5.52;69.15;99509.84;4166609;28;20232;-82
2022/03/21 03:45:14;;;;;;;16.15;12.38;;;;;;;5.47;70.07;99524.63;4170507;28;20248;-83
2022/03/21 03:47:17;;;;;;;17.17;11.27;;;;;;;5.42;70.62;99522.16;4187701;28;20203;-82
2022/03/21 03:49:23;;;;;;;15.98;12.15;;;;;;;5.39;70.18;99524.00;4172004;28;20234;-81
2022/03/21 03:51:26;;;;;;;18.70;11.98;;;;;;;5.27;69.16;99524.28;4185251;28;20753;-83
2022/03/21 03:53:30;;;;;;;17.95;12.10;;;;;;;5.25;70.90;99521.75;4184182;28;20240;-82
2022/03/21 03:55:33;;;;;;;16.25;11.48;;;;;;;5.24;70.33;99524.38;4166289;28;20723;-83
2022/03/21 03:57:36;;;;;;;17.88;11.43;;;;;;;5.24;70.84;99524.38;4192991;28;20262;-82
2022/03/21 03:59:40;;;;;;;16.90;12.32;;;;;;;5.21;70.69;99530.44;4191615;28;20210;-82
2022/03/21 04:01:43;;;;;;;16.27;11.65;;;;;;;5.19;70.54;99521.91;4174049;28;21155;-82
2022/03/21 04:03:45;;;;;;;17.67;11.32;;;;;;;5.21;70.67;99527.88;4174457;28;20317;-82
2022/03/21 04:05:49;;;;;;;15.50;11.68;;;;;;;5.20;70.88;99523.59;4186765;28;20214;-82
2022/03/21 04:07:53;;;;;;;19.17;12.35;;;;;;;5.22;70.63;99529.56;4171483;28;20245;-82
2022/03/21 04:09:56;;;;;;;15.93;11.35;;;;;;;5.15;71.19;99529.75;4184403;28;20561;-82
2022/03/21 04:11:59;;;;;;;17.23;12.30;;;;;;;5.14;71.59;99528.91;4202637;28;20216;-83
2022/03/21 04:14:03;;;;;;;19.88;11.77;;;;;;;5.05;71.05;99528.31;4182623;28;20227;-81
2022/03/21 04:16:06;;;;;;;16.48;10.90;;;;;;;5.06;71.78;99534.31;4169367;28;20210;-82
2022/03/21 04:18:10;;;;;;;16.92;11.55;;;;;;;5.01;71.61;99529.25;4185821;28;20208;-82
2022/03/21 04:20:13;;;;;;;18.42;11.05;;;;;;;4.97;71.99;99534.53;4184366;28;20822;-82
2022/03/21 04:22:18;;;;;;;17.92;11.95;;;;;;;4.90;71.69;99522.63;4184690;28;20236;-82
2022/03/21 04:24:21;;;;;;;16.58;11.52;;;;;;;4.89;72.57;99529.53;4165779;28;20291;-82
2022/03/21 04:26:24;;;;;;;17.67;12.30;;;;;;;4.90;71.41;99530.38;4203733;28;20887;-82
2022/03/21 04:28:27;;;;;;;18.48;12.43;;;;;;;4.89;72.03;99521.78;4184883;28;20210;-83
2022/03/21 04:30:30;;;;;;;18.17;13.00;;;;;;;4.86;72.03;99519.25;4185103;28;20241;-82
2022/03/21 04:32:34;;;;;;;16.58;12.20;;;;;;;4.86;71.11;99523.59;4187045;28;20201;-82
2022/03/21 04:34:37;;;;;;;17.55;11.48;;;;;;;4.90;70.39;99533.81;4185894;28;20244;-82
2022/03/21 04:36:42;;;;;;;16.30;12.15;;;;;;;4.87;71.70;99528.72;4180972;28;20221;-82
2022/03/21 04:38:47;;;;;;;17.75;11.32;;;;;;;4.82;71.96;99524.53;4188342;28;20659;-82
2022/03/21 04:40:51;;;;;;;15.45;11.70;;;;;;;4.81;71.69;99528.00;4182971;28;20284;-82
2022/03/21 04:42:54;;;;;;;15.40;11.02;;;;;;;4.79;71.94;99524.59;4167538;28;20210;-82
2022/03/21 04:44:57;;;;;;;14.60;10.80;;;;;;;4.72;70.87;99534.22;4171664;28;20272;-82
2022/03/21 04:47:00;;;;;;;19.38;11.43;;;;;;;4.69;71.86;99528.25;4186692;28;20214;-82
2022/03/21 04:49:03;;;;;;;15.80;11.93;;;;;;;4.70;71.43;99538.56;4169834;28;21067;-82
2022/03/21 04:51:06;;;;;;;15.32;11.50;;;;;;;4.64;72.24;99535.28;4183177;28;20244;-82
2022/03/21 04:53:10;;;;;;;17.50;11.38;;;;;;;4.64;72.80;99543.03;4186042;28;20711;-82
2022/03/21 04:55:17;;;;;;;16.25;12.20;;;;;;;4.58;72.54;99535.41;4167285;28;20241;-82
2022/03/21 04:57:21;;;;;;;14.45;10.85;;;;;;;4.53;73.03;99537.25;4167317;28;20216;-83
2022/03/21 04:59:24;;;;;;;16.20;11.45;;;;;;;4.52;72.64;99543.28;4176159;28;20193;-82
2022/03/21 05:01:27;;;;;;;16.08;11.88;;;;;;;4.55;72.95;99547.53;4186708;28;20208;-82
2022/03/21 05:03:31;;;;;;;18.35;12.20;;;;;;;4.54;73.24;99551.88;4188698;28;20226;-82
2022/03/21 05:05:36;;;;;;;15.32;10.75;;;;;;;4.53;72.96;99546.75;4183057;28;20671;-82
2022/03/21 05:07:42;;;;;;;16.25;11.75;;;;;;;4.51;72.91;99551.94;4187965;28;20209;-83
2022/03/21 05:09:45;;;;;;;18.90;12.02;;;;;;;4.51;72.81;99553.66;4183225;28;20703;-82
2022/03/21 05:11:49;;;;;;;17.90;12.35;;;;;;;4.51;72.41;99549.34;4166088;28;20222;-82
2022/03/21 05:13:52;;;;;;;14.82;11.52;;;;;;;4.47;73.12;99558.03;4173467;28;20242;-83
2022/03/21 05:15:56;;;;;;;16.63;11.90;;;;;;;4.48;72.03;99556.28;4184558;28;20208;-82
2022/03/21 05:18:00;;;;;;;19.63;12.40;;;;;;;4.48;72.42;99558.88;4186715;28;20212;-82
2022/03/21 05:20:08;;;;;;;14.77;11.25;;;;;;;4.49;72.02;99558.84;4186952;28;20649;-82
2022/03/21 05:22:11;;;;;;;14.32;11.55;;;;;;;4.45;73.17;99562.38;4188431;28;20637;-81
2022/03/21 05:31:18;;;;;;;19.00;13.88;;;;;;;4.45;72.40;99564.09;4184913;28;20756;-82
2022/03/21 05:35:56;;;;;;;19.42;12.27;;;;;;;4.47;72.82;99575.28;4184761;28;20226;-81
2022/03/21 05:38:00;;;;;;;18.83;11.55;;;;;;;4.49;72.42;99574.34;4172562;28;20212;-81
2022/03/21 05:42:24;;;;;;;15.45;11.48;;;;;;;4.47;72.25;99577.84;4188608;28;20205;-81
2022/03/21 05:44:29;;;;;;;17.48;11.95;;;;;;;4.48;72.69;99580.41;4168210;28;20266;-82
2022/03/21 05:46:32;;;;;;;21.13;13.38;;;;;;;4.51;72.41;99580.34;4188976;28;20210;-82
2022/03/21 05:48:50;;;;;;;17.42;11.73;;;;;;;4.55;73.15;99589.72;4188232;28;20686;-84
2022/03/21 05:50:54;;;;;;;17.90;12.75;;;;;;;4.56;72.88;99585.41;4173607;28;20209;-83
2022/03/21 05:52:57;;;;;;;16.63;12.80;;;;;;;4.59;73.37;99585.34;4191063;28;21007;-85
2022/03/21 05:55:00;;;;;;;17.98;11.95;;;;;;;4.62;72.74;99585.28;4169186;28;20256;-85
2022/03/21 05:57:04;;;;;;;18.50;11.48;;;;;;;4.68;72.68;99585.16;4189567;28;20206;-84
2022/03/21 06:01:29;;;;;;;17.45;11.75;;;;;;;4.80;71.01;99585.75;4190862;28;20198;-84
2022/03/21 06:03:33;;;;;;;18.75;12.63;;;;;;;4.87;70.97;99590.75;4178699;28;20550;-85
2022/03/21 06:05:37;;;;;;;17.80;12.63;;;;;;;4.94;71.17;99588.88;4173774;28;20213;-84
2022/03/21 06:07:40;;;;;;;23.70;12.55;;;;;;;5.03;72.73;99597.25;4178298;28;20287;-84
2022/03/21 06:09:47;;;;;;;18.55;12.05;;;;;;;5.11;72.96;99589.31;4174883;28;20247;-84
2022/03/21 06:11:51;;;;;;;17.55;12.50;;;;;;;5.18;70.38;99587.41;4170165;28;20242;-87
2022/03/21 06:13:54;;;;;;;16.55;11.73;;;;;;;5.28;71.47;99593.25;4186414;28;20224;-84
2022/03/21 06:15:57;;;;;;;18.83;12.00;;;;;;;5.37;71.52;99593.03;4189259;28;20740;-84
2022/03/21 06:18:02;;;;;;;19.08;12.18;;;;;;;5.49;71.60;99597.88;4170325;28;20234;-84
2022/03/21 06:20:07;;;;;;;17.35;11.95;;;;;;;5.61;70.53;99593.28;4189234;28;20213;-84
2022/03/21 06:22:10;;;;;;;18.90;12.80;;;;;;;5.72;70.29;99601.63;4183294;28;20570;-83
2022/03/21 06:24:13;;;;;;;19.63;12.85;;;;;;;5.85;69.31;99603.88;4169562;28;20217;-83
2022/03/21 06:26:18;;;;;;;17.20;13.18;;;;;;;5.99;70.58;99600.94;4171140;28;20550;-83
2022/03/21 06:28:22;;;;;;;18.85;13.25;;;;;;;6.09;70.12;99601.50;4174255;28;20209;-83
2022/03/21 06:30:25;;;;;;;17.98;13.27;;;;;;;6.25;70.56;99612.28;4173740;28;20206;-84
2022/03/21 06:32:28;;;;;;;18.73;12.93;;;;;;;6.37;69.54;99617.16;4177749;28;20731;-84
2022/03/21 06:34:32;;;;;;;15.55;11.57;;;;;;;6.51;68.57;99618.47;4194932;28;20250;-83
2022/03/21 06:36:36;;;;;;;17.63;12.52;;;;;;;6.60;67.08;99610.44;4193000;28;20207;-84
2022/03/21 06:38:39;;;;;;;17.52;12.68;;;;;;;6.72;67.33;99620.44;4177271;28;20207;-83
2022/03/21 06:40:43;;;;;;;20.55;12.68;;;;;;;6.87;66.57;99630.38;4177607;28;20295;-83
2022/03/21 06:42:46;;;;;;;16.90;12.63;;;;;;;7.03;66.78;99624.69;4187662;28;20207;-84
2022/03/21 06:44:50;;;;;;;20.83;12.75;;;;;;;7.16;66.22;99632.06;4185680;28;20223;-85
2022/03/21 06:46:53;;;;;;;19.85;12.48;;;;;;;7.29;65.88;99622.16;4168412;28;20352;-85
2022/03/21 06:48:56;;;;;;;18.50;12.75;;;;;;;7.42;65.06;99629.50;4167987;28;20210;-84
2022/03/21 06:51:03;;;;;;;19.83;12.85;;;;;;;7.55;65.65;99628.25;4183072;28;20214;-85
2022/03/21 06:53:06;;;;;;;21.35;13.02;;;;;;;7.69;64.50;99632.06;4185477;28;20224;-83
2022/03/21 06:55:12;;;;;;;15.50;13.13;;;;;;;7.77;64.68;99622.31;4187990;28;20209;-84
2022/03/21 06:57:16;;;;;;;18.75;12.52;;;;;;;7.86;63.61;99626.34;4175962;28;20210;-83
2022/03/21 06:59:19;;;;;;;17.35;13.45;;;;;;;8.00;65.56;99625.00;4186937;28;20201;-83
2022/03/21 07:01:23;;;;;;;17.10;12.95;;;;;;;8.16;64.01;99632.25;4175555;28;20213;-82
2022/03/21 07:03:26;;;;;;;20.92;12.80;;;;;;;8.32;64.26;99636.00;4203883;28;20212;-84
2022/03/21 07:05:30;;;;;;;16.92;13.07;;;;;;;8.40;62.11;99633.97;4176245;28;20266;-83
2022/03/21 07:07:35;;;;;;;16.52;12.50;;;;;;;8.52;63.78;99638.75;4195545;28;20206;-83
2022/03/21 07:09:38;;;;;;;17.02;12.50;;;;;;;8.67;61.71;99640.81;4192908;28;20218;-84
2022/03/21 07:11:41;;;;;;;16.13;12.98;;;;;;;8.72;62.40;99644.94;4175725;28;20576;-84
2022/03/21 07:13:47;;;;;;;19.15;13.70;;;;;;;8.89;61.98;99644.34;4174998;28;20252;-85
2022/03/21 07:15:51;;;;;;;18.40;12.75;;;;;;;9.07;62.43;99645.34;4195358;28;20260;-84
2022/03/21 07:17:56;;;;;;;16.33;13.07;;;;;;;9.23;63.54;99643.00;4178332;28;20212;-85
2022/03/21 07:19:59;;;;;;;18.13;12.80;;;;;;;9.44;61.01;99649.09;4171024;28;21266;-84
2022/03/21 07:22:02;;;;;;;17.50;14.17;;;;;;;9.61;61.46;99648.44;4191774;28;20660;-83
2022/03/21 07:24:07;;;;;;;17.50;13.60;;;;;;;9.76;60.50;99647.78;4170320;28;20634;-84
2022/03/21 07:26:11;;;;;;;18.00;13.20;;;;;;;9.80;59.92;99655.41;4192237;28;20747;-83
2022/03/21 07:28:15;;;;;;;16.13;12.53;;;;;;;9.80;59.32;99652.81;4172462;28;20626;-85
2022/03/21 07:30:18;;;;;;;18.37;13.67;;;;;;;9.86;59.64;99658.66;4193303;28;20643;-84
2022/03/21 07:32:21;;;;;;;16.83;12.93;;;;;;;9.97;59.29;99658.25;4177152;28;20642;-84
2022/03/21 07:34:24;;;;;;;16.50;13.03;;;;;;;10.08;61.49;99646.44;4189118;28;20691;-82
2022/03/21 07:36:29;;;;;;;19.50;13.90;;;;;;;10.32;60.26;99647.19;4191947;28;20627;-81
2022/03/21 07:38:32;;;;;;;17.10;12.83;;;;;;;10.53;60.48;99647.97;4175678;28;20636;-81
2022/03/21 07:40:38;;;;;;;16.67;13.70;;;;;;;10.75;60.54;99648.72;4188628;28;20671;-83
2022/03/21 07:42:42;;;;;;;17.40;13.43;;;;;;;10.96;59.70;99659.06;4174758;28;20570;-82
2022/03/21 07:47:21;;;;;;;18.90;14.73;;;;;;;11.33;58.26;99669.50;4173283;28;20622;-82
2022/03/21 07:49:24;;;;;;;19.07;15.03;;;;;;;11.49;59.80;99662.72;4191941;28;20653;-82
2022/03/21 07:51:27;;;;;;;18.57;13.63;;;;;;;11.63;58.43;99662.91;4194729;28;20717;-82
2022/03/21 07:53:30;;;;;;;18.07;14.80;;;;;;;11.64;57.15;99670.66;4188454;28;20638;-82
2022/03/21 07:55:34;;;;;;;17.73;14.70;;;;;;;11.74;58.18;99664.06;4171471;28;20636;-83
2022/03/21 07:57:38;;;;;;;18.00;13.93;;;;;;;11.95;56.93;99666.50;4188867;28;20624;-84
2022/03/21 07:59:41;;;;;;;19.90;13.83;;;;;;;12.04;56.40;99667.81;4186365;28;20622;-84
2022/03/21 08:01:45;;;;;;;16.80;13.20;;;;;;;12.25;55.14;99667.59;4174974;28;20632;-85
2022/03/21 08:03:49;;;;;;;16.80;14.30;;;;;;;12.37;54.41;99675.69;4172807;28;20629;-84
2022/03/21 08:05:53;;;;;;;19.43;14.57;;;;;;;12.33;54.55;99665.47;4173818;28;21045;-84
2022/03/21 08:07:56;;;;;;;18.27;14.47;;;;;;;12.51;56.04;99668.00;4191788;28;20623;-85
2022/03/21 08:09:59;;;;;;;16.30;13.20;;;;;;;12.67;54.30;99665.44;4210196;28;20997;-84
2022/03/21 08:12:02;;;;;;;17.83;14.37;;;;;;;12.77;55.40;99664.88;4182182;28;20631;-85
2022/03/21 08:14:07;;;;;;;19.43;13.90;;;;;;;12.93;53.54;99663.16;4195171;28;20659;-84
2022/03/21 08:16:11;;;;;;;17.80;14.00;;;;;;;13.01;53.86;99664.47;4173049;28;21269;-85
2022/03/21 08:18:15;;;;;;;17.53;14.03;;;;;;;13.20;55.84;99673.91;4194947;28;21174;-85
2022/03/21 08:20:19;;;;;;;19.80;14.20;;;;;;;13.39;54.59;99673.75;4189825;28;20625;-85
2022/03/21 08:22:22;;;;;;;18.60;14.13;;;;;;;13.53;53.99;99672.06;4177913;28;20666;-84
2022/03/21 08:24:26;;;;;;;17.43;14.33;;;;;;;13.60;52.40;99669.94;4177869;28;20611;-84
2022/03/21 08:26:29;;;;;;;19.73;14.03;;;;;;;13.68;52.70;99672.06;4189376;28;20830;-84
2022/03/21 08:28:34;;;;;;;17.90;14.90;;;;;;;13.85;53.65;99671.97;4177876;28;20618;-85
2022/03/21 08:30:39;;;;;;;17.27;14.23;;;;;;;13.95;54.23;99670.53;4176877;28;21065;-85
2022/03/21 08:32:43;;;;;;;17.13;14.10;;;;;;;13.99;51.67;99671.19;4188472;28;20617;-84
2022/03/21 08:34:46;;;;;;;20.63;13.70;;;;;;;13.95;51.24;99670.53;4192405;28;20640;-84
2022/03/21 08:36:49;;;;;;;17.30;14.40;;;;;;;14.00;50.48;99673.72;4192200;28;21026;-85
2022/03/21 08:38:52;;;;;;;15.77;13.33;;;;;;;14.00;51.25;99678.97;4170379;28;20634;-85
2022/03/21 08:40:56;;;;;;;20.17;13.47;;;;;;;14.05;51.64;99669.09;4175758;28;20661;-84
2022/03/21 08:42:59;;;;;;;17.40;14.40;;;;;;;14.14;50.53;99671.19;4190135;28;20619;-85
2022/03/21 08:45:03;;;;;;;18.67;14.60;;;;;;;14.16;50.01;99666.69;4189139;28;20646;-85
2022/03/21 08:47:08;;;;;;;18.30;13.97;;;;;;;14.22;49.40;99671.59;4185036;28;20662;-85
2022/03/21 08:49:27;;;;;;;17.17;13.27;;;;;;;14.18;49.38;99678.78;4187208;28;20643;-85
2022/03/21 08:51:37;;;;;;;16.97;14.60;;;;;;;14.18;49.61;99664.84;4193269;28;20734;-87
2022/03/21 08:53:41;;;;;;;19.53;13.97;;;;;;;14.17;49.12;99657.91;4177033;28;20651;-87
2022/03/21 08:55:44;;;;;;;17.13;13.33;;;;;;;14.19;49.43;99666.50;4190618;28;20646;-87
2022/03/21 08:57:47;;;;;;;18.33;13.97;;;;;;;14.22;49.93;99658.47;4172390;28;20635;-86
2022/03/21 08:59:52;;;;;;;17.80;14.70;;;;;;;14.28;50.86;99665.97;4187914;28;20734;-85
2022/03/21 09:01:55;;;;;;;15.87;14.10;;;;;;;14.35;50.48;99662.91;4169622;28;20679;-85
2022/03/21 09:04:01;;;;;;;16.03;13.30;;;;;;;14.52;50.72;99665.38;4189605;28;20651;-83
2022/03/21 09:06:05;;;;;;;20.07;13.87;;;;;;;14.66;49.94;99654.94;4185113;28;20643;-83
2022/03/21 09:08:09;;;;;;;17.50;14.50;;;;;;;14.89;50.22;99662.28;4187684;28;20675;-83
2022/03/21 09:10:13;;;;;;;20.30;14.70;;;;;;;15.16;51.36;99659.63;4170078;28;21011;-83
2022/03/21 09:12:16;;;;;;;17.00;14.30;;;;;;;15.42;49.99;99660.69;4176995;28;20658;-83
2022/03/21 09:14:20;;;;;;;17.50;14.67;;;;;;;15.57;49.61;99661.44;4174387;28;20719;-83
2022/03/21 09:16:23;;;;;;;19.23;14.40;;;;;;;15.78;51.08;99657.41;4173684;28;21260;-84
2022/03/21 09:18:27;;;;;;;21.90;15.13;;;;;;;15.90;47.77;99661.03;4190487;28;21233;-84
2022/03/21 09:20:31;;;;;;;17.40;14.63;;;;;;;15.92;50.16;99656.53;4194626;28;21158;-83
2022/03/21 09:22:34;;;;;;;19.23;14.50;;;;;;;15.93;49.55;99659.06;4196445;28;20659;-83
2022/03/21 09:24:37;;;;;;;19.40;14.00;;;;;;;16.03;50.30;99660.16;4176727;28;20996;-83
2022/03/21 09:26:40;;;;;;;18.60;14.77;;;;;;;16.13;50.03;99661.22;4174102;28;21081;-83
2022/03/21 09:28:45;;;;;;;17.70;15.20;;;;;;;16.30;50.15;99658.38;4201901;28;20615;-83
2022/03/21 09:30:48;;;;;;;16.50;14.63;;;;;;;16.38;49.27;99659.53;4190704;28;20643;-83
2022/03/21 09:32:51;;;;;;;17.30;14.30;;;;;;;16.43;49.10;99662.72;4197353;28;20662;-83
2022/03/21 09:34:55;;;;;;;18.07;14.07;;;;;;;16.52;50.95;99660.31;4193687;28;21150;-83
2022/03/21 09:37:00;;;;;;;19.10;15.13;;;;;;;16.50;50.86;99662.19;4186523;28;20631;-83
2022/03/21 09:39:03;;;;;;;16.60;14.03;;;;;;;16.33;49.67;99651.13;4169258;28;20685;-83
2022/03/21 09:41:12;;;;;;;18.50;16.00;;;;;;;16.28;49.97;99641.81;4169597;28;20660;-84
2022/03/21 09:43:15;;;;;;;18.43;14.90;;;;;;;16.34;49.61;99651.94;4201770;28;20630;-83
2022/03/21 09:45:18;;;;;;;19.20;15.47;;;;;;;16.32;48.53;99649.41;4184444;28;20632;-84
2022/03/21 09:49:45;;;;;;;20.90;15.33;;;;;;;16.49;51.43;99646.50;4192036;28;21218;-83
2022/03/21 09:51:50;;;;;;;17.23;15.23;;;;;;;16.65;49.24;99644.53;4189878;28;20682;-84
2022/03/21 09:53:54;;;;;;;21.40;16.23;;;;;;;16.80;49.33;99638.22;4184424;28;21012;-83
2022/03/21 09:55:58;;;;;;;20.30;15.53;;;;;;;16.86;46.87;99641.25;4187332;28;20790;-83
2022/03/21 09:58:01;;;;;;;19.37;15.47;;;;;;;16.87;48.12;99637.69;4186077;28;20665;-84